createdAt,value
2022-11-10T00:01:10.173Z,8.23
2022-11-10T00:03:39.420Z,8.45
2022-11-10T00:06:09.534Z,8.38
2022-11-10T00:08:36.960Z,7.75
2022-11-10T00:11:07.333Z,8.65
2022-11-10T00:13:57.159Z,9.63
2022-11-10T00:16:42.923Z,9.13
2022-11-10T00:19:11.052Z,9.02
2022-11-10T00:21:38.254Z,8.65
2022-11-10T00:24:05.612Z,9.30
2022-11-10T00:26:34.599Z,8.20
2022-11-10T00:29:01.814Z,8.27
2022-11-10T00:31:28.962Z,8.57
2022-11-10T00:33:58.026Z,9.02
2022-11-10T00:36:25.045Z,8.18
2022-11-10T00:38:52.560Z,8.25
2022-11-10T00:41:20.134Z,8.50
2022-11-10T00:43:49.084Z,8.05
2022-11-10T00:48:43.329Z,14.48
2022-11-10T00:51:19.735Z,23.63
2022-11-10T00:53:47.214Z,21.55
2022-11-10T00:56:14.906Z,11.85
2022-11-10T00:58:42.311Z,14.55
2022-11-10T01:01:12.229Z,9.77
2022-11-10T01:03:39.742Z,9.70
2022-11-10T01:06:08.960Z,9.40
2022-11-10T01:08:36.678Z,9.35
2022-11-10T01:11:13.413Z,9.05
2022-11-10T01:13:41.795Z,9.18
2022-11-10T01:16:11.753Z,9.30
2022-11-10T01:18:38.906Z,9.68
2022-11-10T01:21:07.163Z,8.77
2022-11-10T01:23:35.009Z,8.43
2022-11-10T01:26:05.941Z,9.40
2022-11-10T01:28:33.853Z,8.65
2022-11-10T01:31:11.769Z,8.88
2022-11-10T01:33:39.646Z,11.15
2022-11-10T01:36:10.805Z,10.18
2022-11-10T01:38:40.171Z,9.80
2022-11-10T01:41:11.215Z,7.60
2022-11-10T01:43:39.823Z,9.50
2022-11-10T01:46:12.330Z,8.27
2022-11-10T01:48:45.592Z,8.60
2022-11-10T01:51:21.301Z,9.07
2022-11-10T01:53:57.196Z,9.80
2022-11-10T01:56:26.455Z,8.75
2022-11-10T01:59:01.033Z,7.50
2022-11-10T02:01:28.300Z,8.88
2022-11-10T02:04:05.391Z,9.95
2022-11-10T02:06:37.982Z,9.73
2022-11-10T02:09:06.526Z,9.95
2022-11-10T02:11:34.595Z,10.98
2022-11-10T02:14:02.203Z,10.68
2022-11-10T02:16:30.327Z,10.93
2022-11-10T02:18:57.534Z,11.07
2022-11-10T02:21:24.852Z,11.38
2022-11-10T02:23:53.931Z,11.73
2022-11-10T02:26:25.462Z,10.40
2022-11-10T02:28:53.538Z,11.07
2022-11-10T02:31:20.685Z,12.00
2022-11-10T02:33:48.211Z,10.55
2022-11-10T02:36:15.298Z,10.50
2022-11-10T02:38:42.583Z,10.45
2022-11-10T02:41:10.573Z,10.55
2022-11-10T02:43:39.199Z,12.52
2022-11-10T02:46:06.861Z,11.57
2022-11-10T02:48:34.112Z,11.52
2022-11-10T02:51:01.167Z,12.00
2022-11-10T02:53:28.912Z,12.20
2022-11-10T02:55:56.097Z,10.15
2022-11-10T02:58:23.086Z,9.93
2022-11-10T03:00:50.500Z,12.15
2022-11-10T03:03:17.537Z,9.35
2022-11-10T03:05:44.883Z,9.13
2022-11-10T03:08:12.928Z,12.35
2022-11-10T03:10:39.920Z,12.00
2022-11-10T03:13:10.961Z,12.95
2022-11-10T03:15:38.999Z,12.43
2022-11-10T03:18:06.181Z,13.88
2022-11-10T03:20:33.509Z,20.70
2022-11-10T03:23:05.317Z,19.58
2022-11-10T03:25:34.526Z,18.48
2022-11-10T03:28:02.354Z,16.08
2022-11-10T03:30:29.344Z,17.02
2022-11-10T03:32:58.398Z,17.45
2022-11-10T03:35:26.559Z,13.68
2022-11-10T03:37:53.705Z,16.95
2022-11-10T03:40:21.005Z,14.02
2022-11-10T03:42:48.335Z,15.55
2022-11-10T03:45:16.069Z,15.23
2022-11-10T03:47:48.148Z,14.68
2022-11-10T03:50:18.185Z,13.77
2022-11-10T03:52:47.703Z,15.60
2022-11-10T03:55:18.521Z,13.90
2022-11-10T03:57:46.461Z,16.63
2022-11-10T04:00:14.370Z,13.98
2022-11-10T04:02:42.250Z,13.30
2022-11-10T04:05:29.457Z,16.33
2022-11-10T04:08:17.257Z,14.93
2022-11-10T04:10:44.999Z,14.52
2022-11-10T04:13:31.071Z,14.57
2022-11-10T04:15:58.469Z,12.48
2022-11-10T04:18:25.958Z,12.45
2022-11-10T04:20:59.808Z,11.15
2022-11-10T04:23:35.006Z,13.80
2022-11-10T04:26:29.353Z,12.15
2022-11-10T04:28:59.677Z,12.15
2022-11-10T04:31:30.230Z,12.48
2022-11-10T04:33:57.971Z,11.98
2022-11-10T04:36:30.848Z,9.35
2022-11-10T04:38:59.914Z,10.10
2022-11-10T04:41:28.533Z,12.07
2022-11-10T04:43:56.196Z,12.45
2022-11-10T04:46:24.889Z,11.35
2022-11-10T04:48:53.100Z,11.20
2022-11-10T04:51:30.199Z,11.35
2022-11-10T04:53:57.609Z,13.55
2022-11-10T04:56:27.232Z,12.25
2022-11-10T04:58:55.227Z,11.68
2022-11-10T05:01:27.767Z,11.05
2022-11-10T05:03:56.841Z,13.10
2022-11-10T05:09:24.521Z,11.88
2022-11-10T05:11:52.287Z,10.90
2022-11-10T05:14:21.034Z,10.52
2022-11-10T05:16:48.185Z,10.77
2022-11-10T05:19:21.716Z,10.07
2022-11-10T05:21:49.667Z,12.63
2022-11-10T05:24:17.211Z,10.52
2022-11-10T05:26:44.780Z,11.57
2022-11-10T05:29:12.780Z,10.20
2022-11-10T05:31:40.878Z,11.73
2022-11-10T05:34:07.975Z,10.68
2022-11-10T05:36:35.439Z,11.00
2022-11-10T05:39:03.095Z,11.20
2022-11-10T05:41:32.642Z,11.05
2022-11-10T05:44:01.000Z,11.45
2022-11-10T05:46:31.005Z,11.50
2022-11-10T05:49:00.183Z,10.95
2022-11-10T05:51:29.773Z,11.30
2022-11-10T05:53:57.176Z,12.95
2022-11-10T05:56:24.407Z,9.85
2022-11-10T05:58:57.625Z,10.73
2022-11-10T06:01:25.163Z,8.90
2022-11-10T06:06:36.721Z,11.77
2022-11-10T06:09:17.099Z,10.60
2022-11-10T06:11:54.366Z,9.80
2022-11-10T06:14:28.440Z,12.07
2022-11-10T06:17:00.757Z,10.80
2022-11-10T06:22:16.410Z,10.70
2022-11-10T06:27:45.823Z,10.43
2022-11-10T06:30:38.030Z,10.45
2022-11-10T06:33:05.475Z,8.60
2022-11-10T06:35:32.748Z,9.77
2022-11-10T06:38:02.592Z,8.95
2022-11-10T06:40:32.512Z,8.20
2022-11-10T06:43:00.285Z,9.85
2022-11-10T06:45:28.675Z,9.18
2022-11-10T06:48:08.041Z,8.60
2022-11-10T06:50:35.620Z,10.07
2022-11-10T06:53:12.794Z,8.88
2022-11-10T06:55:42.146Z,12.70
2022-11-10T06:58:10.127Z,9.25
2022-11-10T07:00:37.171Z,9.60
2022-11-10T07:03:07.337Z,10.43
2022-11-10T07:05:36.239Z,10.18
2022-11-10T07:08:09.912Z,10.02
2022-11-10T07:10:39.413Z,9.65
2022-11-10T07:13:21.905Z,9.90
2022-11-10T07:15:49.988Z,10.13
2022-11-10T07:18:19.224Z,10.05
2022-11-10T07:20:46.697Z,9.43
2022-11-10T07:23:14.230Z,8.38
2022-11-10T07:25:41.253Z,7.03
2022-11-10T07:28:18.710Z,7.45
2022-11-10T07:30:48.809Z,7.65
2022-11-10T07:33:40.986Z,8.23
2022-11-10T07:36:08.232Z,6.78
2022-11-10T07:38:35.587Z,6.82
2022-11-10T07:41:02.599Z,4.68
2022-11-10T07:43:29.876Z,6.10
2022-11-10T07:45:56.940Z,7.03
2022-11-10T07:51:16.703Z,8.02
2022-11-10T07:53:59.999Z,7.32
2022-11-10T07:56:30.221Z,7.13
2022-11-10T07:58:57.262Z,6.78
2022-11-10T08:06:42.852Z,6.70
2022-11-10T08:09:10.016Z,7.40
2022-11-10T08:11:42.543Z,6.97
2022-11-10T08:14:09.663Z,5.78
2022-11-10T08:16:38.264Z,5.00
2022-11-10T08:19:07.269Z,6.38
2022-11-10T08:24:20.312Z,5.30
2022-11-10T08:26:49.655Z,6.60
2022-11-10T08:29:17.442Z,5.63
2022-11-10T08:31:44.963Z,4.70
2022-11-10T08:34:15.147Z,5.93
2022-11-10T08:36:45.876Z,4.85
2022-11-10T08:39:20.739Z,4.63
2022-11-10T08:42:06.735Z,4.90
2022-11-10T08:44:34.073Z,4.78
2022-11-10T08:47:01.436Z,5.05
2022-11-10T08:49:28.666Z,5.20
2022-11-10T08:51:58.733Z,4.88
2022-11-10T08:54:26.993Z,5.35
2022-11-10T08:59:53.533Z,5.45
2022-11-10T09:02:20.675Z,5.30
2022-11-10T09:04:50.243Z,4.70
2022-11-10T09:10:07.115Z,5.15
2022-11-10T09:12:37.442Z,4.93
2022-11-10T09:15:05.419Z,4.95
2022-11-10T09:17:32.939Z,5.57
2022-11-10T09:20:05.814Z,6.00
2022-11-10T09:22:35.574Z,5.22
2022-11-10T09:25:03.822Z,5.30
2022-11-10T09:27:36.091Z,5.32
2022-11-10T09:30:05.620Z,3.85
2022-11-10T09:32:33.499Z,4.93
2022-11-10T09:35:01.459Z,5.07
2022-11-10T09:37:28.726Z,5.03
2022-11-10T09:40:02.162Z,4.60
2022-11-10T09:42:34.966Z,4.78
2022-11-10T09:45:53.441Z,5.13
2022-11-10T09:49:35.587Z,4.55
2022-11-10T09:52:22.515Z,3.85
2022-11-10T09:58:45.765Z,4.30
2022-11-10T10:09:04.966Z,4.32
2022-11-10T10:11:48.427Z,3.92
2022-11-10T10:14:30.736Z,4.00
2022-11-10T10:17:07.589Z,3.83
2022-11-10T10:19:50.744Z,3.90
2022-11-10T10:22:48.347Z,4.70
2022-11-10T10:25:22.302Z,3.80
2022-11-10T10:28:19.186Z,3.83
2022-11-10T10:34:10.889Z,5.07
2022-11-10T10:36:51.342Z,3.78
2022-11-10T10:39:37.896Z,4.45
2022-11-10T10:42:27.486Z,4.15
2022-11-10T10:45:25.895Z,4.10
2022-11-10T10:47:55.964Z,4.30
2022-11-10T10:50:30.960Z,3.83
2022-11-10T10:53:05.794Z,4.00
2022-11-10T10:58:54.468Z,4.30
2022-11-10T11:01:30.668Z,3.70
2022-11-10T11:03:59.673Z,3.70
2022-11-10T11:06:32.046Z,4.00
2022-11-10T11:09:06.818Z,3.80
2022-11-10T11:11:43.153Z,3.75
2022-11-10T11:14:23.762Z,4.10
2022-11-10T11:17:02.557Z,3.95
2022-11-10T11:19:36.133Z,4.22
2022-11-10T11:22:18.730Z,3.70
2022-11-10T11:25:04.958Z,4.10
2022-11-10T11:27:41.422Z,3.92
2022-11-10T11:30:13.757Z,3.60
2022-11-10T11:33:20.978Z,4.45
2022-11-10T11:36:22.171Z,4.22
2022-11-10T11:39:18.562Z,3.55
2022-11-10T11:42:15.251Z,3.45
2022-11-10T11:45:01.209Z,4.53
2022-11-10T11:48:19.493Z,4.57
2022-11-10T11:51:09.688Z,3.70
2022-11-10T11:54:48.714Z,3.78
2022-11-10T11:57:43.330Z,4.55
2022-11-10T12:00:14.451Z,4.57
2022-11-10T12:02:48.803Z,4.80
2022-11-10T12:05:51.462Z,3.75
2022-11-10T12:08:37.380Z,4.25
2022-11-10T12:11:36.120Z,4.55
2022-11-10T12:21:31.990Z,4.15
2022-11-10T12:30:43.533Z,4.45
2022-11-10T12:33:39.218Z,4.60
2022-11-10T12:36:11.944Z,4.90
2022-11-10T12:39:03.249Z,4.40
2022-11-10T12:41:45.627Z,4.13
2022-11-10T12:44:42.758Z,3.92
2022-11-10T12:47:15.726Z,4.15
2022-11-10T12:50:15.422Z,4.03
2022-11-10T12:52:59.795Z,3.97
2022-11-10T12:55:41.752Z,5.50
2022-11-10T13:01:21.402Z,3.78
2022-11-10T13:04:10.073Z,4.00
2022-11-10T13:06:37.669Z,4.10
2022-11-10T13:09:05.438Z,3.90
2022-11-10T13:11:37.687Z,4.43
2022-11-10T13:14:28.823Z,4.53
2022-11-10T13:16:56.761Z,5.10
2022-11-10T13:19:24.386Z,3.95
2022-11-10T13:21:52.349Z,5.07
2022-11-10T13:24:34.133Z,4.43
2022-11-10T13:27:04.931Z,4.25
2022-11-10T13:29:35.213Z,4.72
2022-11-10T13:34:53.546Z,4.38
2022-11-10T13:37:33.113Z,5.13
2022-11-10T13:40:33.771Z,4.70
2022-11-10T13:43:03.881Z,4.97
2022-11-10T13:45:45.118Z,4.90
2022-11-10T13:51:28.666Z,4.68
2022-11-10T13:54:44.498Z,4.78
2022-11-10T13:57:29.651Z,4.75
2022-11-10T14:00:02.540Z,5.57
2022-11-10T14:02:54.243Z,5.60
2022-11-10T14:05:37.996Z,6.70
2022-11-10T14:08:24.164Z,5.53
2022-11-10T14:10:58.074Z,5.07
2022-11-10T14:13:49.793Z,4.68
2022-11-10T14:16:21.211Z,6.03
2022-11-10T14:18:54.516Z,6.57
2022-11-10T14:21:27.872Z,5.35
2022-11-10T14:24:25.824Z,5.18
2022-11-10T14:27:16.849Z,5.43
2022-11-10T14:29:48.101Z,6.38
2022-11-10T14:32:23.029Z,5.75
2022-11-10T14:35:27.914Z,5.40
2022-11-10T14:38:04.579Z,5.72
2022-11-10T14:40:32.066Z,5.90
2022-11-10T14:43:01.329Z,5.80
2022-11-10T14:45:29.190Z,6.05
2022-11-10T14:48:00.210Z,7.20
2022-11-10T14:50:38.394Z,5.85
2022-11-10T14:55:58.778Z,6.15
2022-11-10T15:03:50.199Z,7.80
2022-11-10T15:06:21.693Z,7.25
2022-11-10T15:08:49.191Z,7.88
2022-11-10T15:11:39.633Z,8.02
2022-11-10T15:14:32.073Z,7.72
2022-11-10T15:17:09.928Z,8.57
2022-11-10T15:19:47.345Z,8.07
2022-11-10T15:22:29.519Z,8.52
2022-11-10T15:25:09.160Z,10.77
2022-11-10T15:27:37.698Z,8.15
2022-11-10T15:30:24.203Z,9.23
2022-11-10T15:33:02.385Z,10.10
2022-11-10T15:35:32.198Z,10.68
2022-11-10T15:38:21.474Z,10.80
2022-11-10T15:40:51.646Z,12.00
2022-11-10T15:43:20.262Z,12.98
2022-11-10T15:45:55.125Z,13.60
2022-11-10T15:48:49.808Z,13.95
2022-11-10T15:51:25.694Z,13.27
2022-11-10T16:01:35.730Z,14.23
2022-11-10T16:04:13.301Z,15.57
2022-11-10T16:06:41.374Z,15.63
2022-11-10T16:09:20.585Z,18.30
2022-11-10T16:11:52.639Z,14.43
2022-11-10T16:14:21.103Z,20.15
2022-11-10T16:16:48.406Z,13.68
2022-11-10T16:19:15.764Z,13.35
2022-11-10T16:24:41.280Z,25.48
2022-11-10T16:27:12.724Z,35.03
2022-11-10T16:29:41.780Z,23.20
2022-11-10T16:32:17.015Z,32.95
2022-11-10T16:34:44.125Z,25.20
2022-11-10T16:37:13.308Z,23.98
2022-11-10T16:39:48.565Z,29.02
2022-11-10T16:42:17.791Z,28.90
2022-11-10T16:44:57.514Z,34.38
2022-11-10T16:47:26.682Z,32.58
2022-11-10T16:50:33.900Z,37.53
2022-11-10T16:53:07.027Z,38.38
2022-11-10T16:55:36.009Z,35.33
2022-11-10T16:58:03.779Z,32.35
2022-11-10T17:00:30.883Z,20.55
2022-11-10T17:03:06.472Z,22.23
2022-11-10T17:05:39.939Z,19.65
2022-11-10T17:08:07.577Z,22.83
2022-11-10T17:10:35.037Z,29.27
2022-11-10T17:13:02.501Z,25.20
2022-11-10T17:15:35.474Z,26.95
2022-11-10T17:20:39.340Z,18.33
2022-11-10T17:25:37.952Z,25.42
2022-11-10T17:31:34.233Z,18.88
2022-11-10T17:34:01.287Z,20.48
2022-11-10T17:36:33.728Z,21.10
2022-11-10T17:39:01.150Z,20.42
2022-11-10T17:41:30.960Z,19.65
2022-11-10T17:43:58.260Z,24.05
2022-11-10T17:46:26.892Z,19.08
2022-11-10T17:49:01.648Z,19.17
2022-11-10T17:51:33.347Z,21.17
2022-11-10T17:54:04.583Z,19.33
2022-11-10T17:56:34.019Z,20.42
2022-11-10T17:59:01.146Z,16.58
2022-11-10T18:01:29.352Z,22.42
2022-11-10T18:03:59.701Z,19.85
2022-11-10T18:06:28.588Z,19.35
2022-11-10T18:08:55.675Z,19.08
2022-11-10T18:11:22.793Z,15.27
2022-11-10T18:13:50.821Z,15.65
2022-11-10T18:16:18.187Z,15.77
2022-11-10T18:18:45.418Z,25.48
2022-11-10T18:21:13.114Z,15.57
2022-11-10T18:23:43.978Z,15.60
2022-11-10T18:26:11.954Z,16.33
2022-11-10T18:28:40.037Z,12.48
2022-11-10T18:31:13.336Z,11.07
2022-11-10T18:33:42.730Z,11.88
2022-11-10T18:36:11.388Z,13.23
2022-11-10T18:38:41.008Z,12.40
2022-11-10T18:41:27.217Z,15.35
2022-11-10T18:43:54.853Z,16.70
2022-11-10T18:46:22.714Z,20.73
2022-11-10T18:51:51.985Z,17.25
2022-11-10T18:54:20.469Z,23.48
2022-11-10T18:56:51.284Z,20.27
2022-11-10T18:59:18.457Z,13.73
2022-11-10T19:01:48.139Z,16.60
2022-11-10T19:07:14.390Z,17.15
2022-11-10T19:09:54.653Z,19.10
2022-11-10T19:12:26.325Z,21.55
2022-11-10T19:15:11.169Z,25.20
2022-11-10T19:18:09.254Z,22.30
2022-11-10T19:20:40.258Z,18.90
2022-11-10T19:23:12.018Z,22.38
2022-11-10T19:25:42.530Z,21.88
2022-11-10T19:28:14.693Z,19.52
2022-11-10T19:30:42.973Z,19.48
2022-11-10T19:33:10.674Z,19.65
2022-11-10T19:35:42.028Z,15.05
2022-11-10T19:38:10.309Z,18.40
2022-11-10T19:40:40.991Z,16.42
2022-11-10T19:43:12.837Z,14.02
2022-11-10T19:45:42.391Z,11.15
2022-11-10T19:48:10.282Z,15.52
2022-11-10T19:50:38.463Z,15.85
2022-11-10T19:53:33.611Z,15.65
2022-11-10T19:56:21.481Z,13.15
2022-11-10T19:58:52.017Z,13.77
2022-11-10T20:01:20.786Z,13.55
2022-11-10T20:03:51.155Z,13.70
2022-11-10T20:06:26.020Z,12.50
2022-11-10T20:08:53.788Z,13.45
2022-11-10T20:14:00.707Z,11.88
2022-11-10T20:16:29.488Z,13.23
2022-11-10T20:18:59.880Z,14.13
2022-11-10T20:21:30.167Z,14.77
2022-11-10T20:23:59.574Z,16.58
2022-11-10T20:26:27.420Z,21.30
2022-11-10T20:29:17.983Z,25.35
2022-11-10T20:31:47.292Z,15.77
2022-11-10T20:34:17.078Z,23.25
2022-11-10T20:36:46.835Z,27.77
2022-11-10T20:39:17.501Z,26.75
2022-11-10T20:41:50.866Z,23.75
2022-11-10T20:44:18.303Z,19.48
2022-11-10T20:46:54.753Z,17.48
2022-11-10T20:49:22.375Z,21.88
2022-11-10T20:51:51.717Z,18.77
2022-11-10T20:54:19.031Z,19.42
2022-11-10T20:56:49.461Z,17.95
2022-11-10T20:59:16.788Z,24.17
2022-11-10T21:01:44.442Z,21.05
2022-11-10T21:04:20.082Z,26.30
2022-11-10T21:06:47.936Z,18.92
2022-11-10T21:09:15.141Z,29.13
2022-11-10T21:12:02.250Z,29.90
2022-11-10T21:14:29.384Z,25.13
2022-11-10T21:19:26.217Z,29.30
2022-11-10T21:21:54.084Z,23.05
2022-11-10T21:24:21.393Z,17.48
2022-11-10T21:27:12.148Z,17.50
2022-11-10T21:29:42.994Z,17.73
2022-11-10T21:32:14.959Z,18.83
2022-11-10T21:34:43.609Z,16.52
2022-11-10T21:37:12.758Z,18.88
2022-11-10T21:40:03.546Z,18.17
2022-11-10T21:42:35.278Z,16.23
2022-11-10T21:45:05.990Z,14.75
2022-11-10T21:47:33.223Z,13.45
2022-11-10T21:50:01.370Z,13.00
2022-11-10T21:52:35.926Z,13.75
2022-11-10T21:55:06.131Z,11.75
2022-11-10T21:57:33.755Z,12.88
2022-11-10T22:00:00.799Z,12.82
2022-11-10T22:02:30.772Z,12.93
2022-11-10T22:04:57.795Z,15.63
2022-11-10T22:07:31.088Z,16.73
2022-11-10T22:10:21.662Z,13.25
2022-11-10T22:13:07.984Z,14.65
2022-11-10T22:15:53.959Z,14.80
2022-11-10T22:18:40.535Z,15.98
2022-11-10T22:21:08.903Z,17.50
2022-11-10T22:23:57.761Z,13.27
2022-11-10T22:26:24.883Z,14.27
2022-11-10T22:28:54.664Z,14.35
2022-11-10T22:31:22.192Z,14.32
2022-11-10T22:33:50.078Z,14.30
2022-11-10T22:36:17.485Z,14.38
2022-11-10T22:38:49.153Z,19.10
2022-11-10T22:41:39.596Z,19.90
2022-11-10T22:44:09.878Z,18.83
2022-11-10T22:46:44.647Z,17.33
2022-11-10T22:49:14.434Z,13.38
2022-11-10T22:51:43.623Z,14.80
2022-11-10T22:54:12.933Z,14.68
2022-11-10T22:56:42.112Z,11.35
2022-11-10T22:59:12.209Z,13.80
2022-11-10T23:01:41.967Z,12.45
2022-11-10T23:04:11.305Z,11.48
2022-11-10T23:06:39.149Z,14.75
2022-11-10T23:09:16.453Z,12.95
2022-11-10T23:11:59.333Z,13.73
2022-11-10T23:14:32.522Z,13.00
2022-11-10T23:17:09.896Z,14.63
2022-11-10T23:19:37.265Z,14.27
2022-11-10T23:22:04.494Z,15.10
2022-11-10T23:24:32.007Z,12.90
2022-11-10T23:27:04.624Z,17.63
2022-11-10T23:29:32.215Z,18.30
2022-11-10T23:31:59.494Z,17.45
2022-11-10T23:34:27.094Z,16.67
2022-11-10T23:36:54.887Z,14.73
2022-11-10T23:39:22.379Z,15.23
2022-11-10T23:41:49.468Z,14.13
2022-11-10T23:44:17.525Z,14.55
2022-11-10T23:46:44.572Z,15.10
2022-11-10T23:49:12.447Z,14.13
2022-11-10T23:51:41.125Z,14.00
2022-11-10T23:54:12.265Z,15.68
2022-11-10T23:56:39.741Z,14.02
2022-11-10T23:59:06.754Z,14.45
